Time;durP1;ratioP1;P1;durP2;ratioP2;P2;SDS_P1;SDS_P2;PMS_P1;PMS_P2;Temp;Humidity;BMP_temperature;BMP_pressure;BME280_temperature;BME280_humidity;BME280_pressure;Samples;Min_cycle;Max_cycle;Signal;HPM_P1;HPM_P2
2023/03/09 00:01:29;;;;;;;1.65;1.40;;;6.20;99.90;;;;;;5019772;28;20026;-62
2023/03/09 00:03:55;;;;;;;1.83;1.15;;;6.30;99.90;;;;;;5022584;28;20056;-59
2023/03/09 00:06:21;;;;;;;2.65;1.40;;;6.30;99.90;;;;;;5026318;28;20060;-60
2023/03/09 00:08:47;;;;;;;5.70;3.35;;;6.40;99.90;;;;;;5019785;28;20021;-59
2023/03/09 00:11:15;;;;;;;5.28;4.07;;;6.40;99.90;;;;;;5022226;28;20055;-58
2023/03/09 00:13:40;;;;;;;5.40;3.92;;;6.30;99.90;;;;;;5022405;28;20030;-58
2023/03/09 00:16:15;;;;;;;4.80;2.08;;;6.30;99.90;;;;;;5017497;28;20018;-59
2023/03/09 00:18:41;;;;;;;2.10;1.50;;;6.30;99.90;;;;;;5019261;28;20017;-59
2023/03/09 00:21:07;;;;;;;2.08;1.38;;;6.30;99.90;;;;;;5019157;28;20674;-60
2023/03/09 00:23:33;;;;;;;2.05;1.33;;;6.30;99.90;;;;;;5022493;28;20281;-59
2023/03/09 00:26:04;;;;;;;1.92;1.30;;;6.30;99.90;;;;;;5021738;28;20051;-59
2023/03/09 00:28:30;;;;;;;2.03;1.40;;;6.30;99.90;;;;;;5022000;28;20037;-58
2023/03/09 00:31:04;;;;;;;2.95;1.63;;;6.30;99.90;;;;;;5004063;28;20109;-58
2023/03/09 00:33:30;;;;;;;2.35;1.50;;;6.30;99.90;;;;;;5018715;28;20026;-60
2023/03/09 00:35:55;;;;;;;1.05;0.98;;;6.30;99.90;;;;;;5020991;28;20025;-59
2023/03/09 00:38:21;;;;;;;1.30;1.20;;;6.30;99.90;;;;;;5014622;28;20634;-59
2023/03/09 00:40:47;;;;;;;1.85;1.25;;;6.30;99.90;;;;;;4999921;28;20552;-59
2023/03/09 00:43:12;;;;;;;1.92;1.30;;;6.30;99.90;;;;;;5021066;28;20040;-59
2023/03/09 00:45:38;;;;;;;1.80;1.17;;;6.30;99.90;;;;;;5000888;28;20395;-60
2023/03/09 00:48:04;;;;;;;1.85;1.23;;;6.30;99.90;;;;;;5020495;28;20504;-58
2023/03/09 00:50:30;;;;;;;1.67;1.40;;;6.30;99.90;;;;;;5015424;28;20034;-58
2023/03/09 00:52:55;;;;;;;2.72;1.50;;;6.30;99.90;;;;;;5004657;28;20022;-59
2023/03/09 00:55:21;;;;;;;2.30;1.60;;;6.30;99.90;;;;;;5019156;28;20032;-59
2023/03/09 00:57:47;;;;;;;2.55;1.70;;;6.30;99.90;;;;;;4998536;28;20030;-60
2023/03/09 01:00:13;;;;;;;3.60;2.33;;;6.30;99.90;;;;;;5008807;28;20073;-60
2023/03/09 01:02:38;;;;;;;3.47;2.65;;;6.30;99.90;;;;;;5008509;28;20045;-59
2023/03/09 01:05:04;;;;;;;4.13;2.92;;;6.40;99.90;;;;;;5000722;28;20037;-60
2023/03/09 01:07:32;;;;;;;4.00;3.00;;;6.40;99.90;;;;;;5018667;28;20060;-59
2023/03/09 01:09:58;;;;;;;3.60;3.10;;;6.40;99.90;;;;;;5013856;28;20073;-57
2023/03/09 01:12:24;;;;;;;3.88;3.10;;;6.40;99.90;;;;;;5001700;28;20069;-59
2023/03/09 01:14:54;;;;;;;7.45;3.83;;;6.50;99.90;;;;;;5012540;28;20030;-59
2023/03/09 01:17:20;;;;;;;6.80;4.03;;;6.40;99.90;;;;;;5010930;28;20072;-59
2023/03/09 01:19:45;;;;;;;5.10;4.55;;;6.40;99.90;;;;;;4999342;28;20030;-59
2023/03/09 01:22:11;;;;;;;4.22;3.83;;;6.40;99.90;;;;;;5014741;28;20026;-59
2023/03/09 01:24:36;;;;;;;5.13;3.65;;;6.40;99.90;;;;;;5001383;28;20036;-59
2023/03/09 01:27:02;;;;;;;5.13;3.90;;;6.40;99.90;;;;;;5008152;28;20844;-57
2023/03/09 01:29:28;;;;;;;4.18;3.58;;;6.40;99.90;;;;;;5008214;28;20114;-59
2023/03/09 01:31:54;;;;;;;3.20;2.75;;;6.50;99.90;;;;;;4995887;28;20018;-59
2023/03/09 01:34:20;;;;;;;4.55;2.80;;;6.50;99.90;;;;;;5016967;28;20026;-60
2023/03/09 01:36:46;;;;;;;3.95;2.88;;;6.50;99.90;;;;;;4997067;28;20113;-59
2023/03/09 01:39:11;;;;;;;2.67;2.40;;;6.50;99.90;;;;;;5005876;28;20496;-59
2023/03/09 01:41:37;;;;;;;4.07;2.63;;;6.50;99.90;;;;;;5007082;28;20042;-59
2023/03/09 01:44:03;;;;;;;2.38;2.13;;;6.50;99.90;;;;;;5001430;28;20090;-58
2023/03/09 01:46:46;;;;;;;5.68;2.45;;;6.60;99.90;;;;;;5014033;28;20091;-59
2023/03/09 01:49:22;;;;;;;4.05;2.67;;;6.60;99.90;;;;;;5019487;28;20045;-60
2023/03/09 01:51:52;;;;;;;3.72;2.88;;;6.50;99.90;;;;;;5014037;28;20030;-59
2023/03/09 01:54:41;;;;;;;4.90;3.03;;;6.50;99.90;;;;;;5017033;28;20034;-60
2023/03/09 01:57:24;;;;;;;10.32;3.38;;;6.50;99.90;;;;;;5001458;28;20660;-59
2023/03/09 01:59:53;;;;;;;9.38;3.30;;;6.50;99.90;;;;;;5015202;28;20066;-59
2023/03/09 02:02:22;;;;;;;6.82;3.08;;;6.50;99.90;;;;;;5014146;28;20076;-58
2023/03/09 02:04:53;;;;;;;14.88;3.35;;;6.50;99.90;;;;;;5016886;28;20486;-60
2023/03/09 02:07:22;;;;;;;4.28;3.20;;;6.50;99.90;;;;;;5015439;28;20072;-60
2023/03/09 02:09:57;;;;;;;6.78;3.70;;;6.60;99.90;;;;;;5014476;28;20132;-60
2023/03/09 02:12:24;;;;;;;7.13;3.78;;;6.60;99.90;;;;;;5016946;28;20057;-58
2023/03/09 02:14:50;;;;;;;9.85;4.45;;;6.60;99.90;;;;;;5012542;28;20076;-60
2023/03/09 02:17:17;;;;;;;8.30;3.72;;;6.60;99.90;;;;;;5018931;28;20061;-59
2023/03/09 02:19:57;;;;;;;10.20;3.67;;;6.70;99.90;;;;;;5014508;28;20033;-59
2023/03/09 02:22:24;;;;;;;26.52;5.25;;;6.70;99.90;;;;;;5016782;28;20030;-58
2023/03/09 02:24:55;;;;;;;4.15;3.03;;;6.70;99.90;;;;;;5017905;28;20105;-60
2023/03/09 02:27:23;;;;;;;5.82;3.67;;;6.70;99.90;;;;;;5016158;28;20037;-60
2023/03/09 02:29:50;;;;;;;11.43;4.22;;;6.70;99.90;;;;;;5017997;28;20057;-58
2023/03/09 02:32:15;;;;;;;5.45;4.05;;;6.70;99.90;;;;;;5012925;28;20030;-58
2023/03/09 02:34:41;;;;;;;4.88;3.60;;;6.70;99.90;;;;;;5013378;28;20576;-59
2023/03/09 02:37:33;;;;;;;9.13;4.10;;;6.70;99.90;;;;;;5013724;28;20022;-60
2023/03/09 02:40:11;;;;;;;12.52;4.93;;;6.80;99.90;;;;;;5006314;28;20038;-60
2023/03/09 02:42:38;;;;;;;4.18;3.67;;;6.80;99.90;;;;;;4998456;28;20026;-59
2023/03/09 02:45:05;;;;;;;4.57;4.00;;;6.80;99.90;;;;;;4995094;28;20031;-58
2023/03/09 02:47:31;;;;;;;5.07;3.88;;;6.90;99.90;;;;;;5002918;28;20026;-60
2023/03/09 02:49:57;;;;;;;5.70;3.90;;;7.00;99.90;;;;;;5012287;28;20027;-58
2023/03/09 02:52:22;;;;;;;4.55;4.15;;;7.20;99.90;;;;;;4997056;28;20546;-60
2023/03/09 02:54:48;;;;;;;2.90;2.38;;;7.40;99.90;;;;;;5016780;28;20065;-58
2023/03/09 02:57:14;;;;;;;5.65;2.20;;;7.40;99.90;;;;;;5001443;28;20504;-57
2023/03/09 02:59:40;;;;;;;2.45;1.80;;;7.50;99.90;;;;;;5005616;28;20068;-59
2023/03/09 03:02:05;;;;;;;2.22;1.65;;;7.60;99.90;;;;;;5010673;28;20030;-58
2023/03/09 03:04:31;;;;;;;2.00;1.42;;;7.60;99.90;;;;;;4997441;28;20053;-58
2023/03/09 03:06:57;;;;;;;2.28;1.30;;;7.60;99.90;;;;;;5015990;28;20056;-58
2023/03/09 03:09:22;;;;;;;2.72;1.67;;;7.70;99.90;;;;;;5000425;28;20030;-59
2023/03/09 03:11:48;;;;;;;10.85;1.65;;;7.70;99.90;;;;;;4998279;28;20037;-57
2023/03/09 03:14:14;;;;;;;1.00;0.80;;;7.70;99.90;;;;;;5003977;28;20025;-58
2023/03/09 03:16:39;;;;;;;1.15;0.80;;;7.70;99.90;;;;;;5012673;28;20025;-59
2023/03/09 03:19:05;;;;;;;0.90;0.70;;;7.70;99.90;;;;;;4996674;28;20014;-59
2023/03/09 03:21:30;;;;;;;0.50;0.50;;;7.70;99.90;;;;;;5010468;28;20038;-57
2023/03/09 03:23:56;;;;;;;1.92;0.50;;;7.70;99.90;;;;;;5003314;28;20387;-58
2023/03/09 03:26:22;;;;;;;0.60;0.50;;;7.60;99.90;;;;;;5002731;28;20029;-60
2023/03/09 03:28:47;;;;;;;0.55;0.50;;;7.60;99.90;;;;;;5012630;28;20030;-59
2023/03/09 03:31:13;;;;;;;0.85;0.50;;;7.60;99.90;;;;;;4995446;28;20031;-61
2023/03/09 03:33:38;;;;;;;1.55;0.40;;;7.50;99.90;;;;;;5015499;28;20040;-59
2023/03/09 03:36:05;;;;;;;1.02;0.32;;;7.40;99.90;;;;;;5001037;28;20104;-61
2023/03/09 03:38:31;;;;;;;3.70;0.30;;;7.40;99.90;;;;;;5001036;28;20022;-59
2023/03/09 03:40:57;;;;;;;1.00;0.30;;;7.40;99.90;;;;;;5011964;28;20049;-59
2023/03/09 03:43:22;;;;;;;0.30;0.30;;;7.30;99.90;;;;;;5012760;28;20036;-59
2023/03/09 03:45:48;;;;;;;0.30;0.30;;;7.30;99.90;;;;;;5015524;28;20512;-60
2023/03/09 03:48:14;;;;;;;0.55;0.30;;;7.30;99.90;;;;;;4998913;28;20026;-61
2023/03/09 03:50:39;;;;;;;0.65;0.30;;;7.30;99.90;;;;;;5005224;28;20037;-59
2023/03/09 03:53:05;;;;;;;0.30;0.30;;;7.30;99.90;;;;;;5008030;28;20495;-59
2023/03/09 03:55:31;;;;;;;0.55;0.30;;;7.20;99.90;;;;;;4996719;28;20084;-61
2023/03/09 03:57:57;;;;;;;0.20;0.20;;;7.20;99.90;;;;;;4994499;28;20052;-61
2023/03/09 04:00:24;;;;;;;1.20;0.30;;;7.20;99.90;;;;;;5011190;28;20037;-60
2023/03/09 04:02:50;;;;;;;0.47;0.20;;;7.20;99.90;;;;;;5004442;28;20043;-60
2023/03/09 04:05:16;;;;;;;0.20;0.20;;;7.20;99.90;;;;;;5000175;28;20038;-60
2023/03/09 04:07:41;;;;;;;0.20;0.20;;;7.10;99.90;;;;;;5011578;28;20325;-59
2023/03/09 04:10:08;;;;;;;0.13;0.13;;;7.10;99.90;;;;;;4996828;28;20030;-60
2023/03/09 04:12:34;;;;;;;1.75;0.20;;;7.10;99.90;;;;;;5007857;28;20253;-60
2023/03/09 04:15:00;;;;;;;2.75;0.30;;;7.10;99.90;;;;;;5002949;28;20494;-59
2023/03/09 04:17:25;;;;;;;0.40;0.20;;;7.10;99.90;;;;;;5001675;28;20033;-59
2023/03/09 04:19:51;;;;;;;1.42;0.30;;;7.10;99.90;;;;;;5010485;28;20068;-60
2023/03/09 04:22:16;;;;;;;0.20;0.20;;;7.10;99.90;;;;;;4993272;28;20029;-59
2023/03/09 04:24:42;;;;;;;1.20;0.28;;;7.10;99.90;;;;;;5009822;28;20026;-61
2023/03/09 04:27:08;;;;;;;1.25;0.20;;;7.10;99.90;;;;;;5001483;28;20034;-60
2023/03/09 04:29:33;;;;;;;0.43;0.20;;;7.10;99.90;;;;;;5004440;28;20026;-61
2023/03/09 04:31:59;;;;;;;0.98;0.40;;;7.10;99.90;;;;;;5015892;28;20744;-60
2023/03/09 04:34:25;;;;;;;0.40;0.40;;;7.10;99.90;;;;;;5000062;28;20018;-60
2023/03/09 04:36:50;;;;;;;1.75;0.38;;;7.10;99.90;;;;;;5017924;28;20025;-59
2023/03/09 04:39:16;;;;;;;0.85;0.50;;;7.20;99.90;;;;;;5003730;28;20041;-59
2023/03/09 04:41:41;;;;;;;0.30;0.30;;;7.30;99.90;;;;;;5004483;28;20041;-61
2023/03/09 04:44:07;;;;;;;0.35;0.35;;;7.30;99.90;;;;;;5015366;28;20104;-60
2023/03/09 04:46:33;;;;;;;0.20;0.20;;;7.30;99.90;;;;;;5001007;28;20536;-58
2023/03/09 04:48:58;;;;;;;0.30;0.30;;;7.40;99.90;;;;;;5017949;28;20018;-61
2023/03/09 04:51:24;;;;;;;0.20;0.20;;;7.40;99.90;;;;;;5005028;28;20038;-60
2023/03/09 04:53:50;;;;;;;0.57;0.57;;;7.50;99.90;;;;;;5005250;28;20068;-60
2023/03/09 04:56:15;;;;;;;0.25;0.25;;;7.50;99.90;;;;;;5012374;28;20038;-59
2023/03/09 04:58:41;;;;;;;0.30;0.30;;;7.50;99.90;;;;;;5001059;28;20064;-59
2023/03/09 05:01:07;;;;;;;2.03;0.40;;;7.50;99.90;;;;;;5019219;28;20033;-59
2023/03/09 05:03:32;;;;;;;0.20;0.20;;;7.60;99.90;;;;;;5001605;28;20030;-60
2023/03/09 05:05:58;;;;;;;0.25;0.25;;;7.50;99.90;;;;;;5011704;28;20048;-60
2023/03/09 05:08:24;;;;;;;0.20;0.20;;;7.50;99.90;;;;;;5010430;28;20040;-60
2023/03/09 05:10:49;;;;;;;0.32;0.30;;;7.50;99.90;;;;;;4997452;28;20096;-60
2023/03/09 05:13:15;;;;;;;0.30;0.30;;;7.50;99.90;;;;;;5016848;28;20501;-59
2023/03/09 05:15:41;;;;;;;0.20;0.20;;;7.60;99.90;;;;;;5000784;28;20022;-59
2023/03/09 05:18:07;;;;;;;0.40;0.30;;;7.50;99.90;;;;;;5008988;28;20038;-60
2023/03/09 05:20:33;;;;;;;0.30;0.30;;;7.50;99.90;;;;;;5007582;28;20038;-60
2023/03/09 05:23:00;;;;;;;0.50;0.30;;;7.60;99.90;;;;;;5000866;28;20029;-60
2023/03/09 05:25:26;;;;;;;1.10;0.30;;;7.60;99.90;;;;;;5016271;28;20032;-60
2023/03/09 05:27:52;;;;;;;0.35;0.30;;;7.60;99.90;;;;;;4997262;28;20027;-60
2023/03/09 05:30:20;;;;;;;0.32;0.32;;;7.60;99.90;;;;;;5009737;28;20069;-61
2023/03/09 05:32:48;;;;;;;0.80;0.32;;;7.60;99.90;;;;;;5006557;28;20065;-60
2023/03/09 05:35:14;;;;;;;0.45;0.40;;;7.60;99.90;;;;;;5000383;28;20038;-60
2023/03/09 05:37:39;;;;;;;0.80;0.50;;;7.70;99.90;;;;;;5017591;28;20052;-60
2023/03/09 05:40:06;;;;;;;0.90;0.50;;;7.70;99.90;;;;;;4998003;28;20368;-61
2023/03/09 05:42:31;;;;;;;0.50;0.50;;;7.70;99.90;;;;;;5012335;28;20064;-61
2023/03/09 05:44:59;;;;;;;1.13;0.60;;;7.70;99.90;;;;;;5012323;28;20108;-59
2023/03/09 05:47:25;;;;;;;0.65;0.60;;;7.70;99.90;;;;;;5004306;28;20025;-60
2023/03/09 05:49:50;;;;;;;0.68;0.68;;;7.70;99.90;;;;;;5014977;28;20370;-59
2023/03/09 05:52:16;;;;;;;1.05;0.80;;;7.70;99.90;;;;;;4997922;28;20094;-59
2023/03/09 05:54:42;;;;;;;2.15;1.05;;;7.70;99.90;;;;;;5013381;28;20037;-59
2023/03/09 05:57:10;;;;;;;1.70;0.93;;;7.70;99.90;;;;;;5005473;28;20041;-60
2023/03/09 05:59:36;;;;;;;1.05;0.90;;;7.80;99.90;;;;;;5006254;28;20482;-61
2023/03/09 06:02:02;;;;;;;1.10;1.00;;;7.80;99.90;;;;;;5011232;28;20034;-60
2023/03/09 06:04:27;;;;;;;1.20;1.10;;;7.80;99.90;;;;;;4997457;28;20336;-59
2023/03/09 06:06:53;;;;;;;1.33;1.08;;;7.80;99.90;;;;;;5014600;28;20042;-59
2023/03/09 06:09:19;;;;;;;1.55;1.15;;;7.80;99.90;;;;;;5006812;28;20023;-61
2023/03/09 06:11:44;;;;;;;1.38;0.88;;;7.80;99.90;;;;;;5006240;28;20387;-58
2023/03/09 06:14:10;;;;;;;1.13;1.00;;;7.80;99.90;;;;;;5012216;28;20518;-60
2023/03/09 06:16:36;;;;;;;2.88;1.05;;;7.80;99.90;;;;;;5000342;28;20033;-59
2023/03/09 06:19:02;;;;;;;0.98;0.88;;;7.90;99.90;;;;;;5015151;28;20112;-59
2023/03/09 06:21:27;;;;;;;1.15;0.75;;;7.90;99.90;;;;;;4996475;28;20040;-58
2023/03/09 06:23:54;;;;;;;1.20;0.90;;;7.90;99.90;;;;;;5009543;28;20022;-58
2023/03/09 06:26:20;;;;;;;2.05;1.88;;;7.90;99.90;;;;;;4991058;28;20446;-59
2023/03/09 06:28:46;;;;;;;0.82;0.80;;;7.90;99.90;;;;;;4997490;28;20041;-60
2023/03/09 06:31:14;;;;;;;0.90;0.90;;;8.00;99.90;;;;;;5014723;28;20030;-59
2023/03/09 06:33:41;;;;;;;0.90;0.90;;;8.00;99.90;;;;;;5000686;28;20530;-58
2023/03/09 06:36:09;;;;;;;1.40;0.80;;;8.00;99.90;;;;;;5009531;28;20521;-59
2023/03/09 06:38:35;;;;;;;1.15;0.80;;;8.00;99.90;;;;;;5005487;28;20030;-60
2023/03/09 06:41:00;;;;;;;0.90;0.90;;;8.00;99.90;;;;;;5002326;28;20580;-58
2023/03/09 06:43:26;;;;;;;1.10;1.00;;;8.00;99.90;;;;;;5015539;28;20021;-59
2023/03/09 06:45:52;;;;;;;1.02;0.90;;;8.00;99.90;;;;;;4997862;28;20115;-60
2023/03/09 06:48:18;;;;;;;0.95;0.88;;;8.00;99.90;;;;;;5009856;28;20072;-59
2023/03/09 06:50:44;;;;;;;0.95;0.88;;;8.00;99.90;;;;;;5008190;28;20040;-60
2023/03/09 06:53:10;;;;;;;0.70;0.70;;;8.10;99.90;;;;;;4999219;28;20037;-59
2023/03/09 06:55:37;;;;;;;1.60;0.60;;;8.10;99.90;;;;;;5015521;28;20025;-60
2023/03/09 06:58:03;;;;;;;0.60;0.60;;;8.20;99.90;;;;;;4995921;28;20197;-58
2023/03/09 07:00:28;;;;;;;1.05;0.80;;;8.20;99.90;;;;;;5012116;28;20025;-60
2023/03/09 07:02:54;;;;;;;2.63;0.70;;;8.30;99.90;;;;;;5007427;28;20026;-60
2023/03/09 07:05:20;;;;;;;2.67;0.70;;;8.40;99.90;;;;;;5001840;28;20390;-59
2023/03/09 07:07:45;;;;;;;1.35;0.70;;;8.50;99.90;;;;;;5012335;28;20014;-59
2023/03/09 07:10:12;;;;;;;0.73;0.65;;;8.60;99.90;;;;;;4990809;28;20026;-59
2023/03/09 07:12:38;;;;;;;3.55;0.70;;;8.70;99.90;;;;;;5011301;28;20034;-60
2023/03/09 07:15:05;;;;;;;0.77;0.57;;;8.70;99.90;;;;;;4999055;28;20172;-59
2023/03/09 07:17:31;;;;;;;0.90;0.70;;;8.70;99.90;;;;;;4999847;28;20113;-60
2023/03/09 07:19:59;;;;;;;1.00;0.50;;;8.70;99.90;;;;;;4995574;28;20493;-59
2023/03/09 07:22:25;;;;;;;0.77;0.70;;;8.70;99.90;;;;;;4994959;28;20475;-60
2023/03/09 07:24:51;;;;;;;0.80;0.80;;;8.80;99.90;;;;;;5014152;28;20088;-59
2023/03/09 07:27:18;;;;;;;0.77;0.75;;;8.80;99.90;;;;;;5001603;28;20490;-60
2023/03/09 07:29:45;;;;;;;1.38;0.70;;;8.80;99.90;;;;;;5006343;28;20030;-60
2023/03/09 07:32:11;;;;;;;0.68;0.60;;;8.80;99.90;;;;;;5009727;28;20034;-60
2023/03/09 07:34:37;;;;;;;0.80;0.70;;;8.80;99.90;;;;;;4994960;28;20084;-60
2023/03/09 07:37:03;;;;;;;0.85;0.60;;;8.90;99.90;;;;;;5017644;28;20030;-60
2023/03/09 07:39:29;;;;;;;0.50;0.50;;;8.90;99.90;;;;;;4999966;28;20030;-59
2023/03/09 07:41:54;;;;;;;0.65;0.60;;;8.90;99.90;;;;;;5006730;28;20048;-59
2023/03/09 07:44:20;;;;;;;1.38;0.60;;;8.90;99.90;;;;;;5012628;28;20034;-59
2023/03/09 07:46:47;;;;;;;0.50;0.50;;;8.90;99.90;;;;;;4997168;28;20019;-59
2023/03/09 07:49:13;;;;;;;0.70;0.50;;;8.90;99.90;;;;;;5016218;28;20029;-60
2023/03/09 07:51:39;;;;;;;1.33;0.68;;;9.00;99.90;;;;;;4996742;28;20037;-60
2023/03/09 07:54:05;;;;;;;1.50;0.77;;;8.90;99.90;;;;;;5007212;28;20048;-59
2023/03/09 07:56:31;;;;;;;0.60;0.52;;;8.90;99.90;;;;;;5007012;28;20035;-59
2023/03/09 07:58:57;;;;;;;0.63;0.50;;;8.80;99.90;;;;;;4993337;28;20030;-60
2023/03/09 08:01:23;;;;;;;1.52;0.60;;;8.80;99.90;;;;;;5012587;28;20507;-60
2023/03/09 08:03:49;;;;;;;0.98;0.70;;;8.80;99.90;;;;;;4995937;28;20486;-60
2023/03/09 08:06:15;;;;;;;1.23;0.90;;;8.90;99.90;;;;;;5014023;28;20032;-60
2023/03/09 08:08:40;;;;;;;2.00;0.80;;;8.90;99.90;;;;;;5007816;28;20027;-59
2023/03/09 08:11:07;;;;;;;1.00;0.50;;;8.90;99.90;;;;;;5004096;28;20018;-60
2023/03/09 08:13:33;;;;;;;0.60;0.60;;;9.00;99.90;;;;;;5018935;28;20018;-59
2023/03/09 08:16:02;;;;;;;5.45;0.68;;;8.90;99.90;;;;;;4996475;28;20351;-60
2023/03/09 08:18:28;;;;;;;1.85;0.55;;;8.90;99.90;;;;;;5002380;28;20018;-60
2023/03/09 08:20:54;;;;;;;0.55;0.50;;;8.80;99.90;;;;;;5006812;28;20057;-60
2023/03/09 08:23:20;;;;;;;1.42;0.60;;;8.70;99.90;;;;;;5013613;28;20081;-58
2023/03/09 08:25:52;;;;;;;0.82;0.60;;;8.60;99.90;;;;;;5000358;28;20026;-60
2023/03/09 08:28:18;;;;;;;1.63;0.60;;;8.60;99.90;;;;;;5019186;28;20029;-59
2023/03/09 08:30:43;;;;;;;0.93;0.60;;;8.50;99.90;;;;;;4999799;28;20550;-59
2023/03/09 08:33:09;;;;;;;1.77;0.82;;;8.50;99.90;;;;;;5010027;28;20041;-61
2023/03/09 08:35:35;;;;;;;2.17;1.02;;;8.60;99.90;;;;;;5017820;28;20408;-59
2023/03/09 08:38:01;;;;;;;1.60;0.90;;;8.60;99.90;;;;;;5011382;28;20112;-59
2023/03/09 08:40:27;;;;;;;4.20;1.08;;;8.70;99.90;;;;;;4996482;28;20474;-59
2023/03/09 08:42:52;;;;;;;2.20;1.10;;;8.70;99.90;;;;;;5014374;28;20026;-59
2023/03/09 08:45:18;;;;;;;3.55;1.30;;;8.80;99.90;;;;;;5002508;28;20117;-60
2023/03/09 08:47:44;;;;;;;3.75;1.20;;;8.70;99.90;;;;;;5006031;28;20054;-59
2023/03/09 08:50:10;;;;;;;2.97;1.02;;;8.70;99.90;;;;;;5011026;28;20729;-59
2023/03/09 08:52:39;;;;;;;2.80;1.30;;;8.80;99.90;;;;;;4996686;28;20030;-59
2023/03/09 08:55:07;;;;;;;3.38;1.10;;;8.80;99.90;;;;;;5015851;28;20161;-59
2023/03/09 08:57:33;;;;;;;7.80;1.55;;;8.90;99.90;;;;;;5001818;28;20030;-58
2023/03/09 08:59:58;;;;;;;2.92;1.23;;;8.90;99.90;;;;;;5006952;28;20041;-60
2023/03/09 09:02:24;;;;;;;3.72;1.40;;;9.00;99.90;;;;;;4998121;28;20034;-60
2023/03/09 09:04:50;;;;;;;8.07;1.65;;;9.10;99.90;;;;;;5001587;28;20108;-60
2023/03/09 09:07:16;;;;;;;5.47;2.00;;;9.10;99.90;;;;;;5016024;28;20521;-61
2023/03/09 09:09:43;;;;;;;3.75;0.90;;;9.10;99.90;;;;;;4990797;28;20053;-59
2023/03/09 09:12:09;;;;;;;5.90;0.90;;;9.20;99.90;;;;;;5008678;28;20025;-60
2023/03/09 09:14:39;;;;;;;4.10;1.02;;;9.30;99.90;;;;;;5011006;28;20022;-59
2023/03/09 09:17:08;;;;;;;1.90;1.13;;;9.30;99.90;;;;;;5002976;28;20079;-58
2023/03/09 09:19:34;;;;;;;2.17;1.10;;;9.20;99.90;;;;;;5015297;28;20045;-58
2023/03/09 09:22:00;;;;;;;1.77;1.05;;;9.10;99.90;;;;;;4998213;28;20048;-60
2023/03/09 09:24:34;;;;;;;2.25;1.00;;;8.90;99.90;;;;;;5014066;28;20033;-61
2023/03/09 09:27:00;;;;;;;3.30;1.63;;;8.80;99.90;;;;;;5004147;28;20084;-59
2023/03/09 09:29:26;;;;;;;1.90;1.00;;;8.70;99.90;;;;;;5005528;28;20033;-59
2023/03/09 09:31:53;;;;;;;2.38;1.20;;;8.60;99.90;;;;;;5018113;28;20414;-61
2023/03/09 09:34:18;;;;;;;1.88;1.20;;;8.60;99.90;;;;;;4995204;28;20113;-60
2023/03/09 09:36:44;;;;;;;2.72;0.98;;;8.60;99.90;;;;;;5016160;28;20951;-60
2023/03/09 09:39:12;;;;;;;4.03;2.10;;;8.60;99.90;;;;;;5004718;28;20509;-60
2023/03/09 09:41:55;;;;;;;4.15;1.77;;;8.60;99.90;;;;;;5006625;28;20505;-60
2023/03/09 09:44:26;;;;;;;4.05;2.08;;;8.60;99.90;;;;;;5011539;28;20133;-60
2023/03/09 09:46:54;;;;;;;3.45;1.70;;;8.70;99.90;;;;;;4997568;28;20037;-60
2023/03/09 09:49:24;;;;;;;2.25;1.15;;;8.80;99.90;;;;;;5018668;28;20033;-60
2023/03/09 09:51:58;;;;;;;5.43;1.38;;;8.90;99.90;;;;;;4999707;28;20053;-59
2023/03/09 09:54:52;;;;;;;2.95;0.98;;;8.90;99.90;;;;;;5008904;28;20510;-60
2023/03/09 09:57:36;;;;;;;2.38;1.20;;;9.00;99.90;;;;;;5000588;28;20080;-60
2023/03/09 10:00:30;;;;;;;1.40;1.00;;;9.10;99.90;;;;;;5004924;28;20045;-59
2023/03/09 10:03:12;;;;;;;8.93;1.05;;;9.20;99.90;;;;;;5004929;28;20026;-59
2023/03/09 10:06:05;;;;;;;2.88;1.00;;;9.30;99.90;;;;;;5006082;28;20402;-59
2023/03/09 10:08:42;;;;;;;4.05;1.55;;;9.50;99.90;;;;;;5006681;28;20045;-61
2023/03/09 10:11:20;;;;;;;2.13;1.17;;;9.70;99.90;;;;;;4999771;28;20301;-60
2023/03/09 10:13:54;;;;;;;2.05;1.17;;;9.70;99.90;;;;;;5014258;28;20022;-58
2023/03/09 10:16:27;;;;;;;1.77;1.10;;;9.80;99.90;;;;;;4997908;28;20025;-60
2023/03/09 10:18:57;;;;;;;5.45;1.10;;;9.80;99.90;;;;;;5016005;28;20033;-61
2023/03/09 10:21:39;;;;;;;2.30;1.30;;;9.90;99.90;;;;;;5000272;28;20057;-60
2023/03/09 10:24:19;;;;;;;2.50;0.98;;;9.90;99.90;;;;;;5005875;28;20569;-60
2023/03/09 10:27:06;;;;;;;2.93;1.47;;;9.90;99.90;;;;;;5004184;28;20034;-59
2023/03/09 10:29:41;;;;;;;0.90;0.80;;;10.00;99.90;;;;;;5007928;28;20038;-60
2023/03/09 10:32:18;;;;;;;1.45;0.95;;;10.10;99.90;;;;;;5012749;28;20390;-60
2023/03/09 10:34:53;;;;;;;1.88;0.90;;;10.20;99.90;;;;;;4997971;28;20033;-61
2023/03/09 10:37:24;;;;;;;2.10;0.90;;;10.40;99.90;;;;;;5017381;28;20026;-60
2023/03/09 10:39:49;;;;;;;2.42;0.95;;;10.30;99.90;;;;;;4995525;28;20026;-60
2023/03/09 10:42:25;;;;;;;1.83;0.80;;;10.40;99.90;;;;;;5010509;28;20099;-60
2023/03/09 10:45:03;;;;;;;3.30;1.05;;;10.50;99.90;;;;;;5005265;28;20049;-61
2023/03/09 10:47:55;;;;;;;2.97;0.90;;;10.50;99.90;;;;;;5003106;28;20026;-61
2023/03/09 10:50:24;;;;;;;3.20;1.65;;;10.40;99.90;;;;;;5009727;28;20116;-59
2023/03/09 10:52:51;;;;;;;2.45;0.90;;;10.30;99.90;;;;;;4999424;28;20030;-61
2023/03/09 10:55:34;;;;;;;1.95;0.85;;;10.20;99.90;;;;;;5015096;28;20025;-61
2023/03/09 10:58:13;;;;;;;0.95;0.90;;;10.20;99.90;;;;;;5012356;28;20034;-61
2023/03/09 11:00:59;;;;;;;1.13;0.82;;;10.30;99.90;;;;;;4993067;28;20031;-61
2023/03/09 11:03:35;;;;;;;1.70;0.90;;;10.30;99.90;;;;;;4996295;28;20526;-59
2023/03/09 11:06:12;;;;;;;1.95;0.80;;;10.40;99.90;;;;;;4999140;28;20121;-59
2023/03/09 11:08:40;;;;;;;2.03;0.70;;;10.50;99.90;;;;;;5005203;28;20045;-61
2023/03/09 11:11:20;;;;;;;2.20;0.80;;;10.50;99.90;;;;;;5010987;28;20114;-60
2023/03/09 11:13:46;;;;;;;1.10;0.80;;;10.30;99.90;;;;;;4995111;28;20028;-59
2023/03/09 11:16:27;;;;;;;2.60;0.85;;;10.30;99.90;;;;;;5013113;28;20565;-60
2023/03/09 11:19:22;;;;;;;2.30;0.80;;;10.10;99.90;;;;;;4995708;28;20040;-59
2023/03/09 11:21:56;;;;;;;2.65;0.82;;;10.00;99.90;;;;;;4984673;28;20026;-59
2023/03/09 11:24:30;;;;;;;1.77;0.70;;;10.00;99.90;;;;;;5009905;28;20633;-59
2023/03/09 11:27:13;;;;;;;2.08;0.90;;;9.90;99.90;;;;;;5003251;28;20104;-59
2023/03/09 11:30:02;;;;;;;2.55;0.70;;;9.90;99.90;;;;;;5004480;28;20144;-61
2023/03/09 11:32:28;;;;;;;1.50;0.70;;;9.90;99.90;;;;;;5010296;28;20022;-60
2023/03/09 11:34:54;;;;;;;1.50;0.90;;;10.10;99.90;;;;;;5000107;28;20032;-59
2023/03/09 11:37:42;;;;;;;6.32;0.90;;;10.20;99.90;;;;;;5016686;28;20084;-59
2023/03/09 11:40:18;;;;;;;1.13;0.80;;;10.40;99.90;;;;;;4993158;28;20046;-60
2023/03/09 11:42:52;;;;;;;0.68;0.60;;;10.50;99.90;;;;;;5001680;28;20030;-60
2023/03/09 11:45:23;;;;;;;1.38;0.73;;;10.40;99.90;;;;;;4995717;28;20014;-60
2023/03/09 11:48:07;;;;;;;0.77;0.70;;;10.40;99.90;;;;;;4995651;28;20117;-60
2023/03/09 11:50:52;;;;;;;1.85;0.65;;;10.30;99.90;;;;;;4994247;28;20031;-61
2023/03/09 11:53:28;;;;;;;3.70;0.85;;;10.10;99.90;;;;;;4995411;28;20055;-61
2023/03/09 11:55:59;;;;;;;1.10;0.70;;;10.10;99.90;;;;;;4995412;28;20103;-60
2023/03/09 11:58:37;;;;;;;2.05;0.70;;;10.10;99.90;;;;;;4994231;28;20112;-60
2023/03/09 12:01:29;;;;;;;0.70;0.60;;;10.20;99.90;;;;;;4990266;28;20402;-60
2023/03/09 12:04:05;;;;;;;2.70;0.60;;;10.30;99.90;;;;;;4978817;28;20026;-61
2023/03/09 12:06:52;;;;;;;1.27;0.80;;;10.30;99.90;;;;;;4999387;28;20029;-60
2023/03/09 12:09:51;;;;;;;2.17;0.90;;;10.30;99.90;;;;;;5010481;28;20146;-59
2023/03/09 12:12:33;;;;;;;1.30;0.70;;;10.50;99.90;;;;;;4951299;28;20155;-59
2023/03/09 12:15:14;;;;;;;2.55;0.90;;;10.60;99.90;;;;;;5004656;28;20026;-58
2023/03/09 12:18:05;;;;;;;1.73;0.73;;;10.60;99.90;;;;;;5003093;28;20078;-60
2023/03/09 12:20:37;;;;;;;1.27;0.70;;;10.60;99.90;;;;;;5003719;28;20026;-61
2023/03/09 12:23:03;;;;;;;3.35;0.90;;;10.80;99.90;;;;;;5011928;28;20169;-59
2023/03/09 12:25:30;;;;;;;0.70;0.55;;;10.70;99.90;;;;;;4994300;28;20558;-60
2023/03/09 12:28:01;;;;;;;2.28;0.65;;;10.70;99.90;;;;;;5015504;28;20046;-59
2023/03/09 12:30:49;;;;;;;1.23;0.57;;;10.80;99.90;;;;;;4999447;28;20037;-60
2023/03/09 12:33:41;;;;;;;1.17;0.60;;;10.70;99.90;;;;;;5007333;28;20041;-59
2023/03/09 12:36:24;;;;;;;;;;;10.60;99.90;;;;;;4998303;28;20065;-59
2023/03/09 12:39:31;;;;;;;1.33;0.70;;;10.70;99.90;;;;;;5008490;28;19932;-59
2023/03/09 12:42:35;;;;;;;3.25;1.20;;;10.50;99.90;;;;;;5000480;28;20049;-59
2023/03/09 12:45:14;;;;;;;5.50;1.55;;;10.40;99.90;;;;;;5005681;28;20394;-60
2023/03/09 12:48:01;;;;;;;1.33;1.00;;;10.50;99.90;;;;;;5004157;28;20039;-58
2023/03/09 12:50:53;;;;;;;2.20;0.80;;;10.70;99.90;;;;;;5008772;28;20188;-58
2023/03/09 12:53:25;;;;;;;1.85;0.73;;;11.00;99.90;;;;;;5001050;28;20031;-59
2023/03/09 12:56:16;;;;;;;1.92;1.05;;;11.10;99.90;;;;;;5000619;28;20097;-60
2023/03/09 12:58:51;;;;;;;2.42;1.00;;;11.20;99.90;;;;;;5015615;28;20026;-60
2023/03/09 13:01:16;;;;;;;2.80;1.00;;;11.30;99.90;;;;;;4999930;28;20557;-59
2023/03/09 13:03:48;;;;;;;5.30;1.00;;;11.20;99.90;;;;;;5015766;28;20033;-59
2023/03/09 13:06:34;;;;;;;2.90;1.00;;;11.30;99.90;;;;;;5004789;28;20105;-60
2023/03/09 13:09:13;;;;;;;2.28;1.00;;;11.30;99.90;;;;;;5008578;28;20482;-60